createdAt,value
2017-10-14T00:00:21.242Z,0
2017-10-14T00:01:20.558Z,0
2017-10-14T00:02:20.900Z,0
2017-10-14T00:03:20.871Z,0
2017-10-14T00:04:20.859Z,0
2017-10-14T00:05:20.871Z,0
2017-10-14T00:06:20.856Z,0
2017-10-14T00:07:21.174Z,0
2017-10-14T00:08:21.182Z,0
2017-10-14T00:09:20.479Z,0
2017-10-14T00:10:20.463Z,0
2017-10-14T00:11:20.821Z,0
2017-10-14T00:12:20.780Z,0
2017-10-14T00:13:20.772Z,0
2017-10-14T00:14:20.783Z,0
2017-10-14T00:15:20.442Z,0
2017-10-14T00:16:20.407Z,0
2017-10-14T00:17:20.765Z,0
2017-10-14T00:18:21.085Z,0
2017-10-14T00:19:21.059Z,0
2017-10-14T00:20:20.723Z,0
2017-10-14T00:21:21.045Z,0
2017-10-14T00:22:20.345Z,0
2017-10-14T00:23:20.695Z,0
2017-10-14T00:24:20.341Z,0
2017-10-14T00:25:21.005Z,0
2017-10-14T00:26:20.662Z,0
2017-10-14T00:27:20.650Z,0
2017-10-14T00:28:20.996Z,0
2017-10-14T00:29:20.614Z,0
2017-10-14T00:30:21.283Z,0
2017-10-14T00:31:20.603Z,0
2017-10-14T00:32:20.586Z,0
2017-10-14T00:33:20.572Z,0
2017-10-14T00:34:20.906Z,0
2017-10-14T00:35:20.892Z,0
2017-10-14T00:36:20.911Z,0
2017-10-14T00:37:20.887Z,0
2017-10-14T00:38:20.186Z,0
2017-10-14T00:39:20.531Z,0
2017-10-14T00:40:20.522Z,0
2017-10-14T00:41:21.194Z,0
2017-10-14T00:42:20.503Z,0
2017-10-14T00:43:20.479Z,0
2017-10-14T00:44:20.124Z,0
2017-10-14T00:45:20.798Z,0
2017-10-14T00:46:20.121Z,0
2017-10-14T00:47:20.443Z,0
2017-10-14T00:48:20.089Z,0
2017-10-14T00:49:20.419Z,0
2017-10-14T00:50:20.408Z,0
2017-10-14T00:51:20.050Z,0
2017-10-14T00:52:20.728Z,0
2017-10-14T00:53:20.414Z,0
2017-10-14T00:54:20.364Z,0
2017-10-14T00:55:20.367Z,0
2017-10-14T00:56:20.002Z,0
2017-10-14T00:57:20.674Z,0
2017-10-14T00:58:20.337Z,0
2017-10-14T00:59:20.652Z,0
2017-10-14T01:00:20.319Z,0
2017-10-14T01:01:20.310Z,0
2017-10-14T01:02:20.285Z,0
2017-10-14T01:03:20.284Z,0
2017-10-14T01:04:20.274Z,0
2017-10-14T01:05:20.259Z,0
2017-10-14T01:06:19.907Z,0
2017-10-14T01:07:20.234Z,0
2017-10-14T01:08:20.938Z,0
2017-10-14T01:09:20.233Z,0
2017-10-14T01:10:20.550Z,0
2017-10-14T01:11:20.205Z,0
2017-10-14T01:12:20.200Z,0
2017-10-14T01:13:19.838Z,0
2017-10-14T01:14:20.164Z,0
2017-10-14T01:15:20.155Z,0
2017-10-14T01:16:19.803Z,0
2017-10-14T01:17:20.126Z,0
2017-10-14T01:18:20.124Z,0
2017-10-14T01:19:20.459Z,0
2017-10-14T01:20:20.140Z,0
2017-10-14T01:21:20.114Z,0
2017-10-14T01:22:20.089Z,0
2017-10-14T01:23:19.733Z,0
2017-10-14T01:24:19.724Z,0
2017-10-14T01:25:19.716Z,0
2017-10-14T01:26:19.706Z,0
2017-10-14T01:27:19.698Z,0
2017-10-14T01:28:19.685Z,0
2017-10-14T01:29:19.675Z,0
2017-10-14T01:30:19.698Z,0
2017-10-14T01:31:20.709Z,0
2017-10-14T01:32:19.985Z,0
2017-10-14T01:33:19.987Z,0
2017-10-14T01:34:20.324Z,0
2017-10-14T01:35:20.297Z,0
2017-10-14T01:36:20.283Z,0
2017-10-14T01:37:20.282Z,0
2017-10-14T01:38:19.601Z,0
2017-10-14T01:39:20.283Z,0
2017-10-14T01:40:19.585Z,0
2017-10-14T01:41:19.562Z,0
2017-10-14T01:42:19.891Z,0
2017-10-14T01:43:19.879Z,0
2017-10-14T01:44:19.901Z,0
2017-10-14T01:45:19.519Z,0
2017-10-14T01:46:20.201Z,0
2017-10-14T01:47:19.845Z,0
2017-10-14T01:48:20.183Z,0
2017-10-14T01:49:19.486Z,0
2017-10-14T01:50:20.160Z,0
2017-10-14T01:51:20.157Z,0
2017-10-14T01:52:19.814Z,0
2017-10-14T01:53:19.451Z,0
2017-10-14T01:54:19.779Z,0
2017-10-14T01:55:20.137Z,0
2017-10-14T01:56:19.783Z,0
2017-10-14T01:57:20.088Z,0
2017-10-14T01:58:20.096Z,0
2017-10-14T01:59:19.734Z,0
2017-10-14T02:00:19.400Z,0
2017-10-14T02:01:19.716Z,0
2017-10-14T02:02:19.738Z,0
2017-10-14T02:03:20.052Z,0
2017-10-14T02:04:19.687Z,0
2017-10-14T02:05:20.017Z,0
2017-10-14T02:06:20.033Z,0
2017-10-14T02:07:19.667Z,0
2017-10-14T02:08:19.323Z,0
2017-10-14T02:09:19.294Z,0
2017-10-14T02:10:19.632Z,0
2017-10-14T02:11:19.300Z,0
2017-10-14T02:12:19.270Z,0
2017-10-14T02:13:19.613Z,0
2017-10-14T02:14:19.950Z,0
2017-10-14T02:15:19.937Z,0
2017-10-14T02:16:19.242Z,0
2017-10-14T02:17:19.904Z,0
2017-10-14T02:18:19.215Z,0
2017-10-14T02:19:19.198Z,0
2017-10-14T02:20:19.872Z,0
2017-10-14T02:21:19.857Z,0
2017-10-14T02:22:19.853Z,0
2017-10-14T02:23:19.522Z,0
2017-10-14T02:24:19.487Z,0
2017-10-14T02:25:19.819Z,0
2017-10-14T02:26:19.814Z,0
2017-10-14T02:27:19.137Z,0
2017-10-14T02:28:19.460Z,0
2017-10-14T02:29:19.435Z,0
2017-10-14T02:30:19.091Z,0
2017-10-14T02:31:19.427Z,0
2017-10-14T02:32:19.413Z,0
2017-10-14T02:33:19.059Z,0
2017-10-14T02:34:19.050Z,0
2017-10-14T02:35:19.040Z,0
2017-10-14T02:36:19.025Z,0
2017-10-14T02:37:20.037Z,0
2017-10-14T02:38:19.717Z,0
2017-10-14T02:39:19.361Z,0
2017-10-14T02:40:19.336Z,0
2017-10-14T02:41:19.358Z,0
2017-10-14T02:42:19.308Z,0
2017-10-14T02:43:19.309Z,0
2017-10-14T02:44:19.296Z,0
2017-10-14T02:45:19.645Z,0
2017-10-14T02:46:18.939Z,0
2017-10-14T02:47:19.950Z,0
2017-10-14T02:48:19.604Z,0
2017-10-14T02:49:18.898Z,0
2017-10-14T02:50:19.235Z,0
2017-10-14T02:51:19.562Z,0
2017-10-14T02:52:19.207Z,0
2017-10-14T02:53:19.214Z,0
2017-10-14T02:54:19.185Z,0
2017-10-14T02:55:19.174Z,0
2017-10-14T02:56:19.167Z,0
2017-10-14T02:57:19.491Z,0
2017-10-14T02:58:19.168Z,0
2017-10-14T02:59:19.173Z,0
2017-10-14T03:00:18.792Z,0
2017-10-14T03:01:19.120Z,0
2017-10-14T03:02:18.794Z,0
2017-10-14T03:03:19.108Z,0
2017-10-14T03:04:19.080Z,0
2017-10-14T03:05:19.127Z,0
2017-10-14T03:06:18.719Z,0
2017-10-14T03:07:19.060Z,0
2017-10-14T03:08:19.386Z,0
2017-10-14T03:09:19.030Z,0
2017-10-14T03:10:19.026Z,0
2017-10-14T03:11:19.004Z,0
2017-10-14T03:12:18.997Z,0
2017-10-14T03:13:18.662Z,0
2017-10-14T03:14:18.971Z,0
2017-10-14T03:15:18.631Z,0
2017-10-14T03:16:19.639Z,0
2017-10-14T03:17:19.289Z,0
2017-10-14T03:18:19.273Z,0
2017-10-14T03:19:18.599Z,0
2017-10-14T03:20:19.268Z,0
2017-10-14T03:21:18.899Z,0
2017-10-14T03:22:19.230Z,0
2017-10-14T03:23:19.236Z,0
2017-10-14T03:24:19.224Z,0
2017-10-14T03:25:18.856Z,0
2017-10-14T03:26:18.868Z,0
2017-10-14T03:27:18.830Z,0
2017-10-14T03:28:19.180Z,0
2017-10-14T03:29:18.817Z,0
2017-10-14T03:30:18.817Z,0
2017-10-14T03:31:19.154Z,0
2017-10-14T03:32:19.135Z,0
2017-10-14T03:33:18.772Z,0
2017-10-14T03:34:18.793Z,0
2017-10-14T03:35:19.106Z,0
2017-10-14T03:36:18.741Z,0
2017-10-14T03:37:18.729Z,0
2017-10-14T03:38:18.375Z,0
2017-10-14T03:39:19.041Z,0
2017-10-14T03:40:18.373Z,0
2017-10-14T03:41:19.377Z,0
2017-10-14T03:42:18.351Z,0
2017-10-14T03:43:18.667Z,0
2017-10-14T03:44:19.007Z,0
2017-10-14T03:45:18.641Z,0
2017-10-14T03:46:19.000Z,0
2017-10-14T03:47:18.625Z,0
2017-10-14T03:48:19.296Z,0
2017-10-14T03:49:18.610Z,0
2017-10-14T03:50:18.639Z,0
2017-10-14T03:51:18.577Z,0
2017-10-14T03:52:18.909Z,0
2017-10-14T03:53:18.895Z,0
2017-10-14T03:54:18.548Z,0
2017-10-14T03:55:18.536Z,0
2017-10-14T03:56:18.199Z,0
2017-10-14T03:57:18.175Z,0
2017-10-14T03:58:18.845Z,0
2017-10-14T03:59:18.514Z,0
2017-10-14T04:00:18.146Z,0
2017-10-14T04:01:18.495Z,0
2017-10-14T04:02:18.125Z,0
2017-10-14T04:03:18.454Z,0
2017-10-14T04:04:18.787Z,0
2017-10-14T04:05:18.115Z,0
2017-10-14T04:06:18.429Z,0
2017-10-14T04:07:19.097Z,0
2017-10-14T04:08:18.744Z,0
2017-10-14T04:09:18.391Z,0
2017-10-14T04:10:18.049Z,0
2017-10-14T04:11:18.034Z,0
2017-10-14T04:12:18.398Z,0
2017-10-14T04:13:18.014Z,0
2017-10-14T04:14:18.370Z,0
2017-10-14T04:15:18.009Z,0
2017-10-14T04:16:17.985Z,0
2017-10-14T04:17:18.315Z,0
2017-10-14T04:18:18.324Z,0
2017-10-14T04:19:17.951Z,0
2017-10-14T04:20:18.621Z,0
2017-10-14T04:21:18.272Z,0
2017-10-14T04:22:18.628Z,0
2017-10-14T04:23:18.945Z,0
2017-10-14T04:24:18.249Z,0
2017-10-14T04:25:18.234Z,0
2017-10-14T04:26:18.370Z,0
2017-10-14T04:27:18.221Z,0
2017-10-14T04:28:17.868Z,0
2017-10-14T04:29:18.911Z,0
2017-10-14T04:30:18.199Z,0
2017-10-14T04:31:18.178Z,0
2017-10-14T04:32:18.167Z,0
2017-10-14T04:33:18.835Z,0
2017-10-14T04:34:17.814Z,0
2017-10-14T04:35:17.801Z,0
2017-10-14T04:36:18.128Z,0
2017-10-14T04:37:18.131Z,0
2017-10-14T04:38:18.118Z,0
2017-10-14T04:39:18.438Z,0
2017-10-14T04:40:18.088Z,0
2017-10-14T04:41:18.425Z,0
2017-10-14T04:42:18.100Z,0
2017-10-14T04:43:18.426Z,0
2017-10-14T04:44:18.429Z,0
2017-10-14T04:45:17.708Z,0
2017-10-14T04:46:17.714Z,0
2017-10-14T04:47:18.034Z,0
2017-10-14T04:48:18.381Z,0
2017-10-14T04:49:18.008Z,0
2017-10-14T04:50:18.339Z,0
2017-10-14T04:51:17.988Z,0
2017-10-14T04:52:17.640Z,0
2017-10-14T04:53:18.124Z,0
2017-10-14T04:54:18.313Z,0
2017-10-14T04:55:17.969Z,0
2017-10-14T04:56:17.605Z,0
2017-10-14T04:57:17.597Z,0
2017-10-14T04:58:17.601Z,0
2017-10-14T04:59:17.577Z,0
2017-10-14T05:00:18.257Z,0
2017-10-14T05:01:18.237Z,0
2017-10-14T05:02:17.908Z,0
2017-10-14T05:03:18.224Z,0
2017-10-14T05:04:17.543Z,0
2017-10-14T05:05:17.864Z,4
2017-10-14T05:06:18.205Z,4
2017-10-14T05:07:18.183Z,0
2017-10-14T05:08:17.857Z,4
2017-10-14T05:09:17.826Z,8
2017-10-14T05:10:18.182Z,4
2017-10-14T05:11:17.811Z,8
2017-10-14T05:12:17.802Z,8
2017-10-14T05:13:18.144Z,8
2017-10-14T05:14:18.122Z,16
2017-10-14T05:15:18.453Z,16
2017-10-14T05:16:17.788Z,16
2017-10-14T05:17:17.763Z,24
2017-10-14T05:18:18.090Z,28
2017-10-14T05:19:17.737Z,32
2017-10-14T05:20:17.727Z,36
2017-10-14T05:21:17.383Z,40
2017-10-14T05:22:17.745Z,44
2017-10-14T05:23:17.360Z,52
2017-10-14T05:24:17.713Z,60
2017-10-14T05:25:18.019Z,68
2017-10-14T05:26:17.672Z,76
2017-10-14T05:27:18.016Z,84
2017-10-14T05:28:17.657Z,92
2017-10-14T05:29:17.993Z,104
2017-10-14T05:30:17.298Z,116
2017-10-14T05:31:17.629Z,124
2017-10-14T05:32:17.636Z,136
2017-10-14T05:33:17.614Z,156
2017-10-14T05:34:17.600Z,176
2017-10-14T05:35:17.935Z,200
2017-10-14T05:36:17.927Z,216
2017-10-14T05:37:17.586Z,232
2017-10-14T05:38:17.602Z,248
2017-10-14T05:39:17.574Z,268
2017-10-14T05:40:17.211Z,292
2017-10-14T05:41:17.880Z,308
2017-10-14T05:42:17.891Z,316
2017-10-14T05:43:17.534Z,328
2017-10-14T05:44:17.175Z,348
2017-10-14T05:45:17.506Z,360
2017-10-14T05:46:17.503Z,380
2017-10-14T05:47:17.839Z,384
2017-10-14T05:48:17.504Z,404
2017-10-14T05:49:17.147Z,432
2017-10-14T05:50:17.141Z,464
2017-10-14T05:51:17.799Z,488
2017-10-14T05:52:17.793Z,500
2017-10-14T05:53:17.533Z,508
2017-10-14T05:54:17.091Z,532
2017-10-14T05:55:17.427Z,568
2017-10-14T05:56:17.764Z,592
2017-10-14T05:57:17.435Z,588
2017-10-14T05:58:17.425Z,568
2017-10-14T05:59:17.412Z,576
2017-10-14T06:00:17.662Z,592
2017-10-14T06:01:17.365Z,612
2017-10-14T06:02:17.383Z,632
2017-10-14T06:03:17.558Z,648
2017-10-14T06:04:17.032Z,680
2017-10-14T06:05:17.307Z,728
2017-10-14T06:06:17.989Z,784
2017-10-14T06:07:17.538Z,832
2017-10-14T06:08:17.551Z,860
2017-10-14T06:09:17.035Z,872
2017-10-14T06:10:17.028Z,856
2017-10-14T06:11:17.765Z,880
2017-10-14T06:12:17.539Z,936
2017-10-14T06:13:17.623Z,984
2017-10-14T06:14:17.126Z,1036
2017-10-14T06:15:17.833Z,1096
2017-10-14T06:16:17.635Z,1140
2017-10-14T06:17:17.622Z,1136
2017-10-14T06:18:17.577Z,1136
2017-10-14T06:19:17.221Z,1196
2017-10-14T06:20:17.920Z,1284
2017-10-14T06:21:17.214Z,1372
2017-10-14T06:22:17.195Z,1448
2017-10-14T06:23:17.523Z,1484
2017-10-14T06:24:17.527Z,1508
2017-10-14T06:25:16.854Z,1476
2017-10-14T06:26:17.158Z,1456
2017-10-14T06:27:17.513Z,1524
2017-10-14T06:28:17.495Z,1604
2017-10-14T06:29:17.487Z,1592
2017-10-14T06:30:17.466Z,1584
2017-10-14T06:31:17.464Z,1668
2017-10-14T06:32:17.154Z,1764
2017-10-14T06:33:16.761Z,1892
2017-10-14T06:34:17.120Z,1932
2017-10-14T06:35:17.448Z,1924
2017-10-14T06:36:17.082Z,1944
2017-10-14T06:37:17.086Z,1908
2017-10-14T06:38:17.061Z,1868
2017-10-14T06:39:16.732Z,1852
2017-10-14T06:40:17.059Z,1864
2017-10-14T06:41:17.038Z,1900
2017-10-14T06:42:17.039Z,1908
2017-10-14T06:43:17.369Z,1900
2017-10-14T06:44:17.376Z,2004
2017-10-14T06:45:16.668Z,2188
2017-10-14T06:46:17.345Z,2256
2017-10-14T06:47:17.359Z,2192
2017-10-14T06:48:17.330Z,2132
2017-10-14T06:49:17.319Z,2156
2017-10-14T06:50:16.968Z,2224
2017-10-14T06:51:17.316Z,2252
2017-10-14T06:52:17.295Z,2256
2017-10-14T06:53:17.308Z,2284
2017-10-14T06:54:17.629Z,2344
2017-10-14T06:55:16.675Z,2440
2017-10-14T06:56:16.587Z,2500
2017-10-14T06:57:17.292Z,2576
2017-10-14T06:58:16.908Z,2708
2017-10-14T06:59:16.578Z,2860
2017-10-14T07:00:16.896Z,2864
2017-10-14T07:01:17.231Z,2824
2017-10-14T07:02:16.541Z,2820
2017-10-14T07:03:17.231Z,2836
2017-10-14T07:04:16.875Z,2904
2017-10-14T07:05:16.866Z,2968
2017-10-14T07:06:16.854Z,2924
2017-10-14T07:07:16.837Z,2876
2017-10-14T07:08:16.497Z,2892
2017-10-14T07:09:17.170Z,2948
2017-10-14T07:10:17.501Z,3040
2017-10-14T07:11:16.472Z,3084
2017-10-14T07:12:17.178Z,3044
2017-10-14T07:13:16.804Z,2976
2017-10-14T07:14:17.133Z,2964
2017-10-14T07:15:16.789Z,2976
2017-10-14T07:16:16.856Z,2960
2017-10-14T07:17:17.180Z,2884
2017-10-14T07:18:16.770Z,2784
2017-10-14T07:19:16.775Z,2736
2017-10-14T07:20:16.763Z,2740
2017-10-14T07:21:17.121Z,2780
2017-10-14T07:22:16.391Z,2876
2017-10-14T07:23:16.385Z,3028
2017-10-14T07:24:16.390Z,3148
2017-10-14T07:25:16.723Z,3224
2017-10-14T07:26:17.171Z,3296
2017-10-14T07:27:16.707Z,3352
2017-10-14T07:28:17.039Z,3444
2017-10-14T07:29:16.727Z,3656
2017-10-14T07:30:16.335Z,3896
2017-10-14T07:31:16.681Z,4260
2017-10-14T07:32:16.661Z,4472
2017-10-14T07:33:16.654Z,4408
2017-10-14T07:34:16.651Z,4236
2017-10-14T07:35:16.321Z,4208
2017-10-14T07:36:16.292Z,4212
2017-10-14T07:37:16.619Z,4236
2017-10-14T07:38:16.619Z,4360
2017-10-14T07:39:16.610Z,4464
2017-10-14T07:40:16.632Z,4444
2017-10-14T07:41:16.955Z,4520
2017-10-14T07:42:17.276Z,4552
2017-10-14T07:43:16.259Z,4472
2017-10-14T07:44:16.623Z,4364
2017-10-14T07:45:16.574Z,4388
2017-10-14T07:46:16.249Z,4384
2017-10-14T07:47:16.564Z,4380
2017-10-14T07:48:16.554Z,4432
2017-10-14T07:49:16.223Z,4400
2017-10-14T07:50:16.196Z,4424
2017-10-14T07:51:16.904Z,4632
2017-10-14T07:52:16.210Z,4972
2017-10-14T07:53:17.205Z,5132
2017-10-14T07:54:16.508Z,5176
2017-10-14T07:55:16.856Z,5084
2017-10-14T07:56:16.524Z,5000
2017-10-14T07:57:16.491Z,4992
2017-10-14T07:58:16.141Z,5052
2017-10-14T07:59:16.506Z,5272
2017-10-14T08:00:16.156Z,5520
2017-10-14T08:01:16.127Z,5580
2017-10-14T08:02:16.822Z,5456
2017-10-14T08:03:16.789Z,5276
2017-10-14T08:04:16.107Z,5228
2017-10-14T08:05:16.118Z,5272
2017-10-14T08:06:17.116Z,5556
2017-10-14T08:07:16.445Z,5680
2017-10-14T08:08:16.421Z,5600
2017-10-14T08:09:16.456Z,5632
2017-10-14T08:10:16.425Z,5788
2017-10-14T08:11:16.065Z,5684
2017-10-14T08:12:16.395Z,5812
2017-10-14T08:13:16.052Z,5996
2017-10-14T08:14:16.390Z,6036
2017-10-14T08:15:16.727Z,6100
2017-10-14T08:16:16.718Z,6216
2017-10-14T08:17:16.025Z,6436
2017-10-14T08:18:16.698Z,6412
2017-10-14T08:19:16.722Z,6292
2017-10-14T08:20:16.354Z,6228
2017-10-14T08:21:16.006Z,6292
2017-10-14T08:22:15.999Z,6340
2017-10-14T08:23:16.332Z,6500
2017-10-14T08:24:16.000Z,6728
2017-10-14T08:25:16.682Z,6688
2017-10-14T08:26:16.318Z,6640
2017-10-14T08:27:16.661Z,6912
2017-10-14T08:28:16.646Z,7228
2017-10-14T08:29:16.300Z,7252
2017-10-14T08:30:16.289Z,6928
2017-10-14T08:31:15.964Z,6480
2017-10-14T08:32:16.283Z,6440
2017-10-14T08:33:16.283Z,6764
2017-10-14T08:34:15.929Z,6928
2017-10-14T08:35:16.287Z,6820
2017-10-14T08:36:16.281Z,6976
2017-10-14T08:37:16.268Z,7092
2017-10-14T08:38:16.274Z,6876
2017-10-14T08:39:16.593Z,7020
2017-10-14T08:40:16.942Z,7364
2017-10-14T08:41:16.237Z,7484
2017-10-14T08:42:16.596Z,7492
2017-10-14T08:43:16.571Z,7660
2017-10-14T08:44:15.880Z,7592
2017-10-14T08:45:16.232Z,7188
2017-10-14T08:46:15.872Z,7144
2017-10-14T08:47:15.863Z,7124
2017-10-14T08:48:16.202Z,7328
2017-10-14T08:49:15.879Z,6696
2017-10-14T08:50:15.850Z,6652
2017-10-14T08:51:16.217Z,6728
2017-10-14T08:52:16.186Z,6676
2017-10-14T08:53:16.524Z,6116
2017-10-14T08:54:16.517Z,5424
2017-10-14T08:55:15.830Z,4964
2017-10-14T08:56:16.162Z,4416
2017-10-14T08:57:16.504Z,3992
2017-10-14T08:58:16.158Z,3864
2017-10-14T08:59:16.146Z,3624
2017-10-14T09:00:16.482Z,3204
2017-10-14T09:01:15.797Z,2688
2017-10-14T09:02:15.799Z,2748
2017-10-14T09:03:16.126Z,2664
2017-10-14T09:04:16.151Z,2420
2017-10-14T09:05:16.137Z,2424
2017-10-14T09:06:15.776Z,2392
2017-10-14T09:07:16.461Z,2360
2017-10-14T09:08:16.119Z,2344
2017-10-14T09:09:16.107Z,2360
2017-10-14T09:10:15.760Z,2364
2017-10-14T09:11:16.092Z,2380
2017-10-14T09:12:16.100Z,2468
2017-10-14T09:13:16.422Z,2472
2017-10-14T09:14:16.755Z,2332
2017-10-14T09:15:15.774Z,2376
2017-10-14T09:16:16.411Z,2504
2017-10-14T09:17:16.070Z,2336
2017-10-14T09:18:16.403Z,2364
2017-10-14T09:19:15.714Z,2756
2017-10-14T09:20:16.048Z,3412
2017-10-14T09:21:16.045Z,4148
2017-10-14T09:22:16.414Z,3876
2017-10-14T09:23:16.034Z,3192
2017-10-14T09:24:15.688Z,2764
2017-10-14T09:25:16.018Z,2576
2017-10-14T09:26:15.676Z,2428
2017-10-14T09:27:16.041Z,2332
2017-10-14T09:28:16.346Z,2324
2017-10-14T09:29:16.009Z,2652
2017-10-14T09:30:16.349Z,2492
2017-10-14T09:31:16.355Z,2332
2017-10-14T09:32:15.987Z,2320
2017-10-14T09:33:16.323Z,2332
2017-10-14T09:34:15.974Z,2340
2017-10-14T09:35:16.681Z,2340
2017-10-14T09:36:16.313Z,2412
2017-10-14T09:37:15.641Z,2396
2017-10-14T09:38:15.956Z,2356
2017-10-14T09:39:16.291Z,2464
2017-10-14T09:40:15.944Z,2456
2017-10-14T09:41:15.948Z,2376
2017-10-14T09:42:15.949Z,2436
2017-10-14T09:43:16.268Z,2492
2017-10-14T09:44:16.636Z,2688
2017-10-14T09:45:15.925Z,3140
2017-10-14T09:46:15.913Z,2796
2017-10-14T09:47:15.571Z,2592
2017-10-14T09:48:15.920Z,2616
2017-10-14T09:49:15.561Z,2904
2017-10-14T09:50:15.564Z,2900
2017-10-14T09:51:15.956Z,3412
2017-10-14T09:52:15.886Z,3980
2017-10-14T09:53:15.541Z,3192
2017-10-14T09:54:15.882Z,2836
2017-10-14T09:55:15.872Z,3040
2017-10-14T09:56:16.072Z,3364
2017-10-14T09:57:16.212Z,2948
2017-10-14T09:58:15.912Z,3020
2017-10-14T09:59:15.854Z,2912
2017-10-14T10:00:15.510Z,2612
2017-10-14T10:01:15.507Z,2432
2017-10-14T10:02:15.504Z,2460
2017-10-14T10:03:16.178Z,2608
2017-10-14T10:04:15.845Z,2760
2017-10-14T10:05:15.828Z,2872
2017-10-14T10:06:15.829Z,3236
2017-10-14T10:07:15.819Z,3468
2017-10-14T10:08:16.158Z,2944
2017-10-14T10:09:15.821Z,2780
2017-10-14T10:10:15.467Z,2936
2017-10-14T10:11:15.798Z,3064
2017-10-14T10:12:16.475Z,3272
2017-10-14T10:13:15.451Z,2984
2017-10-14T10:14:15.799Z,2544
2017-10-14T10:15:15.783Z,2452
2017-10-14T10:16:16.132Z,2432
2017-10-14T10:17:16.459Z,2104
2017-10-14T10:18:16.110Z,2484
2017-10-14T10:19:16.116Z,2460
2017-10-14T10:20:15.441Z,2516
2017-10-14T10:21:15.763Z,2512
2017-10-14T10:22:15.756Z,2596
2017-10-14T10:23:15.772Z,2776
2017-10-14T10:24:15.746Z,3224
2017-10-14T10:25:15.744Z,3324
2017-10-14T10:26:16.078Z,2928
2017-10-14T10:27:16.084Z,2608
2017-10-14T10:28:16.081Z,2612
2017-10-14T10:29:15.727Z,2792
2017-10-14T10:30:16.083Z,2568
2017-10-14T10:31:16.397Z,2508
2017-10-14T10:32:16.056Z,2464
2017-10-14T10:33:15.707Z,2416
2017-10-14T10:34:15.703Z,2612
2017-10-14T10:35:15.714Z,2600
2017-10-14T10:36:15.362Z,2400
2017-10-14T10:37:16.035Z,2384
2017-10-14T10:38:15.371Z,2368
2017-10-14T10:39:16.048Z,2428
2017-10-14T10:40:15.341Z,2672
2017-10-14T10:41:15.678Z,2616
2017-10-14T10:42:15.677Z,2424
2017-10-14T10:43:15.673Z,2304
2017-10-14T10:44:16.373Z,2312
2017-10-14T10:45:16.011Z,2364
2017-10-14T10:46:15.671Z,2392
2017-10-14T10:47:15.316Z,2436
2017-10-14T10:48:15.651Z,2468
2017-10-14T10:49:15.319Z,2460
2017-10-14T10:50:15.986Z,2472
2017-10-14T10:51:15.644Z,2512
2017-10-14T10:52:15.639Z,2756
2017-10-14T10:53:15.975Z,3200
2017-10-14T10:54:15.632Z,3184
2017-10-14T10:55:15.297Z,2840
2017-10-14T10:56:15.966Z,2484
2017-10-14T10:57:15.284Z,2480
2017-10-14T10:58:15.615Z,2552
2017-10-14T10:59:15.616Z,2768
2017-10-14T11:00:15.951Z,2688
2017-10-14T11:01:15.616Z,2600
2017-10-14T11:02:15.267Z,3052
2017-10-14T11:03:15.600Z,3568
2017-10-14T11:04:15.614Z,3324
2017-10-14T11:05:15.257Z,3204
2017-10-14T11:06:15.632Z,3756
2017-10-14T11:07:15.257Z,3956
2017-10-14T11:08:15.924Z,3316
2017-10-14T11:09:15.594Z,2900
2017-10-14T11:10:15.599Z,2832
2017-10-14T11:11:15.951Z,2776
2017-10-14T11:12:15.918Z,2624
2017-10-14T11:13:15.904Z,2588
2017-10-14T11:14:15.617Z,2684
2017-10-14T11:15:15.560Z,2736
2017-10-14T11:16:15.216Z,3256
2017-10-14T11:17:15.219Z,3468
2017-10-14T11:18:16.229Z,3280
2017-10-14T11:19:15.890Z,2956
2017-10-14T11:20:15.564Z,2720
2017-10-14T11:21:15.902Z,2684
2017-10-14T11:22:15.878Z,2800
2017-10-14T11:23:15.196Z,2860
2017-10-14T11:24:15.192Z,2624
2017-10-14T11:25:15.187Z,2620
2017-10-14T11:26:15.523Z,2604
2017-10-14T11:27:15.884Z,2600
2017-10-14T11:28:15.179Z,2732
2017-10-14T11:29:15.885Z,3000
2017-10-14T11:30:15.515Z,2960
2017-10-14T11:31:15.851Z,3000
2017-10-14T11:32:15.503Z,2828
2017-10-14T11:33:15.860Z,3080
2017-10-14T11:34:15.499Z,3644
2017-10-14T11:35:15.162Z,3728
2017-10-14T11:36:16.174Z,3260
2017-10-14T11:37:15.844Z,2972
2017-10-14T11:38:15.498Z,2700
2017-10-14T11:39:15.161Z,2964
2017-10-14T11:40:15.142Z,3424
2017-10-14T11:41:15.479Z,3924
2017-10-14T11:42:15.486Z,4004
2017-10-14T11:43:15.473Z,4016
2017-10-14T11:44:15.821Z,3516
2017-10-14T11:45:15.473Z,3620
2017-10-14T11:46:15.481Z,3464
2017-10-14T11:47:15.488Z,3472
2017-10-14T11:48:15.118Z,3260
2017-10-14T11:49:15.452Z,2992
2017-10-14T11:50:15.451Z,2944
2017-10-14T11:51:15.451Z,2832
2017-10-14T11:52:15.105Z,2704
2017-10-14T11:53:15.102Z,3020
2017-10-14T11:54:15.441Z,3112
2017-10-14T11:55:15.483Z,3160
2017-10-14T11:56:15.436Z,3308
2017-10-14T11:57:15.771Z,2980
2017-10-14T11:58:15.087Z,2724
2017-10-14T11:59:15.097Z,2424
2017-10-14T12:00:15.423Z,2376
2017-10-14T12:01:15.440Z,2332
2017-10-14T12:02:15.763Z,2212
2017-10-14T12:03:15.753Z,2228
2017-10-14T12:04:15.757Z,2536
2017-10-14T12:05:15.424Z,2728
2017-10-14T12:06:29.968Z,2596
2017-10-14T12:07:15.062Z,2616
2017-10-14T12:08:15.408Z,2516
2017-10-14T12:09:15.395Z,2296
2017-10-14T12:10:16.092Z,2332
2017-10-14T12:11:15.409Z,2148
2017-10-14T12:12:15.046Z,2356
2017-10-14T12:13:15.397Z,2372
2017-10-14T12:14:15.040Z,2300
2017-10-14T12:15:15.378Z,2136
2017-10-14T12:16:15.040Z,2100
2017-10-14T12:17:15.049Z,2112
2017-10-14T12:18:15.069Z,2180
2017-10-14T12:19:15.717Z,2496
2017-10-14T12:20:15.709Z,2672
2017-10-14T12:21:15.360Z,3020
2017-10-14T12:22:15.699Z,3252
2017-10-14T12:23:15.030Z,2776
2017-10-14T12:24:15.395Z,2452
2017-10-14T12:25:15.692Z,2316
2017-10-14T12:26:15.349Z,2656
2017-10-14T12:27:15.709Z,3324
2017-10-14T12:28:15.694Z,3712
2017-10-14T12:29:15.346Z,3620
2017-10-14T12:30:15.333Z,3104
2017-10-14T12:31:14.994Z,2840
2017-10-14T12:32:15.325Z,2656
2017-10-14T12:33:15.328Z,2288
2017-10-14T12:34:14.981Z,2008
2017-10-14T12:35:15.661Z,2172
2017-10-14T12:36:15.357Z,2256
2017-10-14T12:37:15.322Z,2272
2017-10-14T12:38:15.648Z,2348
2017-10-14T12:39:15.656Z,2284
2017-10-14T12:40:15.369Z,2292
2017-10-14T12:41:14.960Z,2256
2017-10-14T12:42:14.960Z,2180
2017-10-14T12:43:15.297Z,2236
2017-10-14T12:44:15.982Z,2568
2017-10-14T12:45:15.306Z,3020
2017-10-14T12:46:15.285Z,3700
2017-10-14T12:47:15.304Z,3476
2017-10-14T12:48:14.939Z,2860
2017-10-14T12:49:14.938Z,2480
2017-10-14T12:50:15.968Z,2296
2017-10-14T12:51:15.292Z,2160
2017-10-14T12:52:15.267Z,2104
2017-10-14T12:53:15.273Z,2068
2017-10-14T12:54:14.923Z,2060
2017-10-14T12:55:15.279Z,2072
2017-10-14T12:56:15.269Z,2144
2017-10-14T12:57:15.265Z,2220
2017-10-14T12:58:15.593Z,2284
2017-10-14T12:59:14.938Z,2288
2017-10-14T13:00:15.244Z,2024
2017-10-14T13:01:14.900Z,2216
2017-10-14T13:02:14.896Z,2260
2017-10-14T13:03:15.940Z,2392
2017-10-14T13:04:15.597Z,2440
2017-10-14T13:05:15.571Z,2492
2017-10-14T13:06:14.888Z,2568
2017-10-14T13:07:15.222Z,2552
2017-10-14T13:08:15.220Z,2604
2017-10-14T13:09:15.239Z,2644
2017-10-14T13:10:15.219Z,2728
2017-10-14T13:11:15.913Z,2816
2017-10-14T13:12:15.222Z,2648
2017-10-14T13:13:14.879Z,2572
2017-10-14T13:14:15.545Z,2596
2017-10-14T13:15:15.204Z,2260
2017-10-14T13:16:15.204Z,2268
2017-10-14T13:17:15.209Z,2268
2017-10-14T13:18:15.200Z,2108
2017-10-14T13:19:15.197Z,2044
2017-10-14T13:20:15.191Z,2056
2017-10-14T13:21:14.841Z,2084
2017-10-14T13:22:15.179Z,2108
2017-10-14T13:23:15.177Z,2100
2017-10-14T13:24:14.837Z,2116
2017-10-14T13:25:15.197Z,2144
2017-10-14T13:26:15.170Z,2156
2017-10-14T13:27:14.823Z,2192
2017-10-14T13:28:15.181Z,2168
2017-10-14T13:29:15.181Z,1992
2017-10-14T13:30:15.155Z,2124
2017-10-14T13:31:15.506Z,2064
2017-10-14T13:32:14.813Z,2068
2017-10-14T13:33:14.843Z,2072
2017-10-14T13:34:14.809Z,2044
2017-10-14T13:35:15.489Z,2052
2017-10-14T13:36:15.146Z,1976
2017-10-14T13:37:15.498Z,2064
2017-10-14T13:38:14.844Z,1940
2017-10-14T13:39:15.477Z,1844
2017-10-14T13:40:14.792Z,2080
2017-10-14T13:41:15.135Z,2056
2017-10-14T13:42:15.122Z,2044
2017-10-14T13:43:14.803Z,2076
2017-10-14T13:44:15.826Z,2124
2017-10-14T13:45:15.489Z,2080
2017-10-14T13:46:14.780Z,2000
2017-10-14T13:47:15.478Z,1960
2017-10-14T13:48:15.117Z,1944
2017-10-14T13:49:15.101Z,1924
2017-10-14T13:50:14.759Z,1916
2017-10-14T13:51:15.438Z,1920
2017-10-14T13:52:14.759Z,1924